createdAt,value
2018-10-06T10:53:08.054Z,5.4
2018-10-06T10:53:22.945Z,5.4
2018-10-06T10:53:37.978Z,5.5
2018-10-06T10:53:52.896Z,5.8
2018-10-06T10:54:28.017Z,5.8
2018-10-06T10:54:43.204Z,5.8
2018-10-06T10:54:57.835Z,5.8
2018-10-06T10:55:12.848Z,5.7
2018-10-06T10:55:27.665Z,5.6
2018-10-06T10:55:43.747Z,5.7
2018-10-06T10:55:57.636Z,6.1
2018-10-06T10:56:12.624Z,6.1
2018-10-06T10:56:27.615Z,6
2018-10-06T10:56:42.627Z,5.6
2018-10-06T10:56:57.626Z,5.6
2018-10-06T10:57:12.859Z,5.9
2018-10-06T10:57:27.789Z,5.7
2018-10-06T10:57:42.873Z,6.1
2018-10-06T10:57:57.787Z,6.3
2018-10-06T10:58:12.901Z,5.8
2018-10-06T10:58:27.710Z,5.4
2018-10-06T10:58:42.709Z,5.4
2018-10-06T10:58:57.684Z,6
2018-10-06T10:59:12.657Z,5.6
2018-10-06T10:59:27.772Z,5
2018-10-06T10:59:42.828Z,5.5
2018-10-06T10:59:57.992Z,5.8
2018-10-06T11:00:12.863Z,5.4
2018-10-06T11:00:27.607Z,5.4
2018-10-06T11:00:42.783Z,5.4
2018-10-06T11:00:57.459Z,5.2
2018-10-06T11:01:12.688Z,5.6
2018-10-06T11:01:27.513Z,5.6
2018-10-06T11:02:00.632Z,0
2018-10-06T11:02:15.595Z,0
2018-10-06T11:02:30.549Z,0
2018-10-06T11:02:45.711Z,0
2018-10-06T11:03:00.540Z,0
2018-10-06T11:03:15.591Z,0
2018-10-06T11:03:30.449Z,0
2018-10-06T11:03:45.566Z,0
2018-10-06T11:04:00.677Z,0
2018-10-06T11:04:15.601Z,0
2018-10-06T11:04:31.510Z,0
2018-10-06T11:04:45.760Z,0
2018-10-06T11:05:00.606Z,0
2018-10-06T11:05:15.615Z,0
2018-10-06T11:05:30.585Z,0
2018-10-06T11:05:45.541Z,0
2018-10-06T11:06:00.483Z,0
2018-10-06T11:06:15.525Z,0
2018-10-06T11:06:30.558Z,0
2018-10-06T11:06:45.617Z,0
2018-10-06T11:07:00.379Z,0
2018-10-06T11:07:15.446Z,0
2018-10-06T11:07:30.634Z,0
2018-10-06T11:08:00.394Z,0
2018-10-06T11:08:15.357Z,0
2018-10-06T11:08:30.477Z,0
2018-10-06T11:08:45.381Z,0
2018-10-06T11:09:00.391Z,0
2018-10-06T11:09:15.499Z,0
2018-10-06T11:09:30.378Z,0
2018-10-06T11:09:45.456Z,0
2018-10-06T11:10:00.326Z,0
2018-10-06T11:10:15.422Z,0
2018-10-06T11:10:30.236Z,0
2018-10-06T11:10:45.288Z,0
2018-10-06T11:11:00.241Z,0
2018-10-06T11:11:15.313Z,0
2018-10-06T11:11:30.224Z,0
2018-10-06T11:11:45.198Z,0
2018-10-06T11:12:00.277Z,0
2018-10-06T11:12:15.140Z,0
2018-10-06T11:12:30.247Z,0
2018-10-06T11:12:45.210Z,0
2018-10-06T11:13:00.197Z,0
2018-10-06T11:13:15.244Z,0
2018-10-06T11:13:30.234Z,0
2018-10-06T11:13:45.270Z,0
2018-10-06T11:14:00.084Z,0
2018-10-06T11:14:15.165Z,0
2018-10-06T11:14:30.185Z,0
2018-10-06T11:14:45.024Z,0
2018-10-06T11:15:00.129Z,0
2018-10-06T11:15:15.153Z,0
2018-10-06T11:15:30.056Z,0
2018-10-06T11:15:45.145Z,0
2018-10-06T11:16:00.152Z,0
2018-10-06T11:16:15.081Z,0
2018-10-06T11:16:30.146Z,0
2018-10-06T11:16:44.979Z,0
2018-10-06T11:17:00.097Z,0
2018-10-06T11:17:14.953Z,0
2018-10-06T11:17:30.051Z,0
2018-10-06T11:17:45.008Z,0
2018-10-06T11:17:59.966Z,0
2018-10-06T11:18:14.940Z,0
2018-10-06T11:18:30.031Z,0
2018-10-06T11:18:44.999Z,0
2018-10-06T11:18:59.899Z,0
2018-10-06T11:19:14.893Z,0
2018-10-06T11:19:30.024Z,0
2018-10-06T11:19:44.868Z,0
2018-10-06T11:19:59.910Z,0
2018-10-06T11:20:15.033Z,0
2018-10-06T11:20:29.891Z,0
2018-10-06T11:20:44.972Z,0
2018-10-06T11:20:59.834Z,0
2018-10-06T11:21:14.965Z,0
2018-10-06T11:21:29.848Z,0
2018-10-06T11:21:44.783Z,0
2018-10-06T11:21:59.627Z,0
2018-10-06T11:22:14.592Z,0
2018-10-06T11:22:29.577Z,0
2018-10-06T11:22:44.574Z,0
2018-10-06T11:22:59.558Z,0
2018-10-06T11:37:10.703Z,0
2018-10-06T11:37:25.789Z,0
2018-10-06T11:37:40.715Z,0
2018-10-06T11:37:55.506Z,0
2018-10-06T11:38:10.615Z,0
2018-10-06T11:38:25.335Z,0
2018-10-06T11:38:40.398Z,0
2018-10-06T11:38:55.400Z,0
2018-10-06T11:39:10.443Z,0
2018-10-06T11:39:25.472Z,0
2018-10-06T11:39:40.501Z,0
2018-10-06T11:39:56.435Z,0
2018-10-06T11:40:10.330Z,0
2018-10-06T11:40:25.177Z,0
2018-10-06T11:40:40.310Z,0
2018-10-06T11:40:55.246Z,0
2018-10-06T11:41:18.854Z,2.6
2018-10-06T11:41:33.722Z,2.5
2018-10-06T11:41:48.839Z,2.4
2018-10-06T11:42:03.875Z,2.5
2018-10-06T11:42:18.721Z,2.6
2018-10-06T11:42:33.692Z,2.3
2018-10-06T11:42:48.598Z,2.2
2018-10-06T11:43:03.699Z,2.3
2018-10-06T11:43:18.747Z,2.2
2018-10-06T11:43:33.616Z,2.4
2018-10-06T11:43:48.797Z,2.5
2018-10-06T11:44:03.610Z,2.5
2018-10-06T11:44:18.551Z,2.3
2018-10-06T11:44:33.463Z,2.2
2018-10-06T11:44:48.434Z,2.5
2018-10-06T11:45:03.413Z,2.7
2018-10-06T11:45:18.544Z,2.7
2018-10-06T11:45:33.470Z,2.4
2018-10-06T11:45:48.457Z,2.5
2018-10-06T11:46:03.625Z,2.7
2018-10-06T11:46:18.417Z,2.5
2018-10-06T11:46:33.441Z,2.6
2018-10-06T11:46:48.473Z,2.7
2018-10-06T11:47:03.267Z,2.5
2018-10-06T11:47:18.476Z,2.6
2018-10-06T11:47:33.419Z,2.6
2018-10-06T11:47:48.214Z,2.4
2018-10-06T11:48:03.338Z,2.5
2018-10-06T11:48:18.318Z,2.6
2018-10-06T11:48:33.164Z,2.5
2018-10-06T11:48:48.135Z,2.6
2018-10-06T11:49:04.109Z,2.8
2018-10-06T11:49:18.101Z,2.8
2018-10-06T11:49:33.107Z,2.7
2018-10-06T11:49:48.216Z,2.5
2018-10-06T11:50:03.252Z,2.3
2018-10-06T11:50:18.058Z,2.5
2018-10-06T11:50:33.055Z,2.6
2018-10-06T11:50:48.016Z,2.5
2018-10-06T11:51:02.990Z,2.7
2018-10-06T11:51:17.958Z,2.5
2018-10-06T11:51:32.968Z,2.5
2018-10-06T11:51:47.922Z,2.7
2018-10-06T11:52:02.929Z,2.7
2018-10-06T11:52:18.089Z,2.6
2018-10-06T11:52:33.006Z,2.3
2018-10-06T11:52:47.860Z,2.4
2018-10-06T11:53:02.863Z,2.7
2018-10-06T11:53:17.998Z,2.5
2018-10-06T11:53:32.965Z,2.3
2018-10-06T11:53:47.787Z,2.5
2018-10-06T11:54:02.797Z,2.5
2018-10-06T11:54:17.747Z,2.6
2018-10-06T11:54:32.904Z,2.7
2018-10-06T11:54:47.924Z,2.8
2018-10-06T11:55:02.884Z,2.7
2018-10-06T11:55:17.893Z,2.4
2018-10-06T11:55:32.976Z,2.2
2018-10-06T11:55:47.918Z,2.4
2018-10-06T11:56:02.774Z,2.4
2018-10-06T11:56:17.606Z,2.3
2018-10-06T11:56:32.596Z,2.7
2018-10-06T11:56:47.567Z,2.9
2018-10-06T11:57:02.664Z,2.9
2018-10-06T11:57:17.599Z,3.5
2018-10-06T11:57:32.821Z,3.4
2018-10-06T11:57:47.577Z,3.1
2018-10-06T11:58:02.501Z,2.9
2018-10-06T11:58:17.461Z,2.6
2018-10-06T11:58:32.474Z,2.6
2018-10-06T11:58:47.423Z,2.6
2018-10-06T11:59:02.419Z,2.7
2018-10-06T11:59:17.398Z,2.9
2018-10-06T11:59:32.370Z,2.8
2018-10-06T11:59:47.403Z,2.5
2018-10-06T12:00:02.580Z,2.4
2018-10-06T12:00:17.443Z,2.4
2018-10-06T12:00:32.365Z,2.8
2018-10-06T12:00:47.462Z,3
2018-10-06T12:01:02.397Z,2.5
2018-10-06T12:01:17.383Z,2.7
2018-10-06T12:01:32.262Z,2.8
2018-10-06T12:01:47.321Z,2.7
2018-10-06T12:02:02.312Z,2.8
2018-10-06T12:02:17.927Z,2.9
2018-10-06T12:02:32.186Z,2.8
2018-10-06T12:02:47.269Z,2.7
2018-10-06T12:03:02.284Z,2.7
2018-10-06T12:03:17.166Z,2.9
2018-10-06T12:03:32.229Z,2.9
2018-10-06T12:03:47.231Z,2.7
2018-10-06T12:04:02.104Z,2.8
2018-10-06T12:04:17.023Z,2.7
2018-10-06T12:04:32.084Z,2.7
2018-10-06T12:04:47.112Z,2.6
2018-10-06T12:05:02.074Z,2.6
2018-10-06T12:05:16.934Z,2.5
2018-10-06T12:05:32.175Z,2.4
2018-10-06T12:05:47.175Z,2.3
2018-10-06T12:06:01.892Z,2.2
2018-10-06T12:06:16.924Z,2.5
2018-10-06T12:06:31.983Z,2.8
2018-10-06T12:06:46.843Z,2.6
2018-10-06T12:07:01.982Z,2.4
2018-10-06T12:07:17.757Z,2.7
2018-10-06T12:07:31.889Z,2.9
2018-10-06T12:07:46.714Z,2.8
2018-10-06T12:08:01.813Z,2.6
2018-10-06T12:08:16.762Z,2.5
2018-10-06T12:08:31.704Z,2.8
2018-10-06T12:08:46.691Z,3
2018-10-06T12:09:01.780Z,2.9
2018-10-06T12:09:16.667Z,2.6
2018-10-06T12:09:31.657Z,2.7
2018-10-06T12:09:46.604Z,2.8
2018-10-06T12:10:01.630Z,2.7
2018-10-06T12:10:16.770Z,2.7
2018-10-06T12:10:31.687Z,2.9
2018-10-06T12:10:46.585Z,3.1
2018-10-06T12:11:01.797Z,2.8
2018-10-06T12:11:16.459Z,2.5
2018-10-06T12:11:31.756Z,2.7
2018-10-06T12:11:46.507Z,2.7
2018-10-06T12:12:01.490Z,2.8
2018-10-06T12:12:16.413Z,2.8
2018-10-06T12:12:31.626Z,2.7
2018-10-06T12:12:46.449Z,2.8
2018-10-06T12:13:01.632Z,3
2018-10-06T12:13:16.518Z,2.7
2018-10-06T12:13:31.610Z,2.8
2018-10-06T12:13:46.257Z,2.8
2018-10-06T12:14:01.345Z,2.7
2018-10-06T12:14:16.258Z,3
2018-10-06T12:14:31.431Z,2.7
2018-10-06T12:14:46.177Z,2.3
2018-10-06T12:15:01.277Z,2.3
2018-10-06T12:15:16.273Z,2.6
2018-10-06T12:15:31.250Z,2.6
2018-10-06T12:15:46.158Z,2.2
2018-10-06T12:16:01.324Z,2.1
2018-10-06T12:16:16.164Z,2.2
2018-10-06T12:16:31.364Z,1.9
2018-10-06T12:16:46.156Z,2.3
2018-10-06T12:17:01.072Z,2.5
2018-10-06T12:17:16.072Z,2.3
2018-10-06T12:17:31.116Z,2.3
2018-10-06T12:17:46.005Z,2.2
2018-10-06T12:18:01.952Z,2.2
2018-10-06T12:18:15.906Z,2.5
2018-10-06T12:18:31.183Z,2.4
2018-10-06T12:18:45.801Z,2.4
2018-10-06T12:19:00.813Z,2.6
2018-10-06T12:19:15.795Z,2.9
2018-10-06T12:19:30.766Z,3
2018-10-06T12:19:46.737Z,3
2018-10-06T12:20:00.780Z,2.9
2018-10-06T12:20:15.738Z,3.1
2018-10-06T12:20:30.834Z,3.5
